sensor_id;sensor_type;location;lat;lon;timestamp;P1;durP1;ratioP1;P2;durP2;ratioP2
45358;SDS011;31096;49.292;8.710;2022-12-07T00:03:06;10.83;;;5.07;;
45358;SDS011;31096;49.292;8.710;2022-12-07T00:07:57;11.13;;;5.78;;
45358;SDS011;31096;49.292;8.710;2022-12-07T00:12:48;10.18;;;5.45;;
45358;SDS011;31096;49.292;8.710;2022-12-07T00:17:38;8.67;;;4.90;;
45358;SDS011;31096;49.292;8.710;2022-12-07T00:22:29;9.25;;;4.53;;
45358;SDS011;31096;49.292;8.710;2022-12-07T00:27:21;9.60;;;5.27;;
45358;SDS011;31096;49.292;8.710;2022-12-07T00:32:11;11.10;;;4.60;;
45358;SDS011;31096;49.292;8.710;2022-12-07T00:37:03;10.02;;;5.57;;
45358;SDS011;31096;49.292;8.710;2022-12-07T00:41:54;7.77;;;4.47;;
45358;SDS011;31096;49.292;8.710;2022-12-07T00:46:44;11.55;;;5.70;;
45358;SDS011;31096;49.292;8.710;2022-12-07T00:51:36;10.00;;;5.10;;
45358;SDS011;31096;49.292;8.710;2022-12-07T00:56:27;10.00;;;4.97;;
45358;SDS011;31096;49.292;8.710;2022-12-07T01:01:19;9.20;;;4.45;;
45358;SDS011;31096;49.292;8.710;2022-12-07T01:06:13;9.35;;;4.13;;
45358;SDS011;31096;49.292;8.710;2022-12-07T01:11:11;8.83;;;4.90;;
45358;SDS011;31096;49.292;8.710;2022-12-07T01:16:05;10.02;;;4.88;;
45358;SDS011;31096;49.292;8.710;2022-12-07T01:21:00;9.13;;;4.80;;
45358;SDS011;31096;49.292;8.710;2022-12-07T01:25:58;8.20;;;4.55;;
45358;SDS011;31096;49.292;8.710;2022-12-07T01:31:01;9.13;;;4.85;;
45358;SDS011;31096;49.292;8.710;2022-12-07T01:36:17;8.47;;;4.80;;
45358;SDS011;31096;49.292;8.710;2022-12-07T01:41:13;11.90;;;6.13;;
45358;SDS011;31096;49.292;8.710;2022-12-07T01:46:05;11.85;;;5.90;;
45358;SDS011;31096;49.292;8.710;2022-12-07T01:50:56;10.18;;;5.53;;
45358;SDS011;31096;49.292;8.710;2022-12-07T01:55:56;12.65;;;5.25;;
45358;SDS011;31096;49.292;8.710;2022-12-07T02:00:48;10.00;;;5.53;;
45358;SDS011;31096;49.292;8.710;2022-12-07T02:05:40;14.13;;;5.90;;
45358;SDS011;31096;49.292;8.710;2022-12-07T02:10:31;9.70;;;5.20;;
45358;SDS011;31096;49.292;8.710;2022-12-07T02:15:26;11.10;;;5.55;;
45358;SDS011;31096;49.292;8.710;2022-12-07T02:20:33;10.13;;;4.97;;
45358;SDS011;31096;49.292;8.710;2022-12-07T02:25:55;9.05;;;5.00;;
45358;SDS011;31096;49.292;8.710;2022-12-07T02:31:14;10.60;;;5.77;;
45358;SDS011;31096;49.292;8.710;2022-12-07T02:36:13;9.65;;;5.45;;
45358;SDS011;31096;49.292;8.710;2022-12-07T02:41:19;9.25;;;5.22;;
45358;SDS011;31096;49.292;8.710;2022-12-07T02:46:17;9.63;;;4.60;;
45358;SDS011;31096;49.292;8.710;2022-12-07T02:51:21;9.93;;;5.55;;
45358;SDS011;31096;49.292;8.710;2022-12-07T03:01:33;11.02;;;5.32;;
45358;SDS011;31096;49.292;8.710;2022-12-07T03:07:05;10.68;;;5.72;;
45358;SDS011;31096;49.292;8.710;2022-12-07T03:12:11;11.33;;;5.53;;
45358;SDS011;31096;49.292;8.710;2022-12-07T03:17:19;11.02;;;5.90;;
45358;SDS011;31096;49.292;8.710;2022-12-07T03:22:15;15.60;;;6.83;;
45358;SDS011;31096;49.292;8.710;2022-12-07T03:27:17;15.05;;;7.78;;
45358;SDS011;31096;49.292;8.710;2022-12-07T03:32:16;10.52;;;5.63;;
45358;SDS011;31096;49.292;8.710;2022-12-07T03:38:13;11.40;;;5.37;;
45358;SDS011;31096;49.292;8.710;2022-12-07T03:43:06;10.98;;;5.40;;
45358;SDS011;31096;49.292;8.710;2022-12-07T03:48:02;10.80;;;5.97;;
45358;SDS011;31096;49.292;8.710;2022-12-07T03:53:15;11.55;;;5.60;;
45358;SDS011;31096;49.292;8.710;2022-12-07T03:58:15;10.73;;;5.30;;
45358;SDS011;31096;49.292;8.710;2022-12-07T04:03:08;10.97;;;5.30;;
45358;SDS011;31096;49.292;8.710;2022-12-07T04:07:59;10.85;;;5.60;;
45358;SDS011;31096;49.292;8.710;2022-12-07T04:12:50;10.93;;;5.87;;
45358;SDS011;31096;49.292;8.710;2022-12-07T04:17:41;11.67;;;6.07;;
45358;SDS011;31096;49.292;8.710;2022-12-07T04:22:32;12.05;;;6.85;;
45358;SDS011;31096;49.292;8.710;2022-12-07T04:27:23;10.47;;;5.80;;
45358;SDS011;31096;49.292;8.710;2022-12-07T04:32:15;12.27;;;6.68;;
45358;SDS011;31096;49.292;8.710;2022-12-07T04:37:05;10.47;;;5.87;;
45358;SDS011;31096;49.292;8.710;2022-12-07T04:41:56;12.57;;;6.10;;
45358;SDS011;31096;49.292;8.710;2022-12-07T04:46:48;14.17;;;7.23;;
45358;SDS011;31096;49.292;8.710;2022-12-07T04:51:38;12.88;;;6.70;;
45358;SDS011;31096;49.292;8.710;2022-12-07T04:56:29;12.10;;;6.28;;
45358;SDS011;31096;49.292;8.710;2022-12-07T05:01:21;15.85;;;6.75;;
45358;SDS011;31096;49.292;8.710;2022-12-07T05:06:12;12.80;;;6.40;;
45358;SDS011;31096;49.292;8.710;2022-12-07T05:11:04;13.43;;;7.03;;
45358;SDS011;31096;49.292;8.710;2022-12-07T05:15:56;13.13;;;7.13;;
45358;SDS011;31096;49.292;8.710;2022-12-07T05:20:46;12.63;;;6.75;;
45358;SDS011;31096;49.292;8.710;2022-12-07T05:25:37;11.37;;;6.33;;
45358;SDS011;31096;49.292;8.710;2022-12-07T05:30:28;12.40;;;6.13;;
45358;SDS011;31096;49.292;8.710;2022-12-07T05:35:20;13.40;;;7.10;;
45358;SDS011;31096;49.292;8.710;2022-12-07T05:40:11;14.90;;;7.70;;
45358;SDS011;31096;49.292;8.710;2022-12-07T05:45:04;12.83;;;6.53;;
45358;SDS011;31096;49.292;8.710;2022-12-07T05:49:57;12.00;;;6.53;;
45358;SDS011;31096;49.292;8.710;2022-12-07T05:54:48;15.30;;;7.27;;
45358;SDS011;31096;49.292;8.710;2022-12-07T05:59:38;12.53;;;6.80;;
45358;SDS011;31096;49.292;8.710;2022-12-07T06:04:33;13.73;;;6.88;;
45358;SDS011;31096;49.292;8.710;2022-12-07T06:09:28;12.63;;;6.20;;
45358;SDS011;31096;49.292;8.710;2022-12-07T06:14:19;12.52;;;6.90;;
45358;SDS011;31096;49.292;8.710;2022-12-07T06:19:10;14.37;;;7.17;;
45358;SDS011;31096;49.292;8.710;2022-12-07T06:24:01;12.27;;;6.53;;
45358;SDS011;31096;49.292;8.710;2022-12-07T06:28:52;14.97;;;7.97;;
45358;SDS011;31096;49.292;8.710;2022-12-07T06:33:42;12.65;;;6.22;;
45358;SDS011;31096;49.292;8.710;2022-12-07T06:38:33;14.50;;;7.03;;
45358;SDS011;31096;49.292;8.710;2022-12-07T06:43:24;15.93;;;6.97;;
45358;SDS011;31096;49.292;8.710;2022-12-07T06:48:15;13.50;;;6.47;;
45358;SDS011;31096;49.292;8.710;2022-12-07T06:53:06;13.97;;;6.67;;
45358;SDS011;31096;49.292;8.710;2022-12-07T06:57:58;13.73;;;7.15;;
45358;SDS011;31096;49.292;8.710;2022-12-07T07:02:48;13.97;;;7.07;;
45358;SDS011;31096;49.292;8.710;2022-12-07T07:07:40;15.25;;;7.40;;
45358;SDS011;31096;49.292;8.710;2022-12-07T07:12:30;13.57;;;7.10;;
45358;SDS011;31096;49.292;8.710;2022-12-07T07:17:21;14.37;;;7.27;;
45358;SDS011;31096;49.292;8.710;2022-12-07T07:22:12;14.15;;;7.78;;
45358;SDS011;31096;49.292;8.710;2022-12-07T07:27:02;11.30;;;6.43;;
45358;SDS011;31096;49.292;8.710;2022-12-07T07:31:53;16.47;;;7.83;;
45358;SDS011;31096;49.292;8.710;2022-12-07T07:36:43;12.40;;;6.72;;
45358;SDS011;31096;49.292;8.710;2022-12-07T07:41:34;14.80;;;7.43;;
45358;SDS011;31096;49.292;8.710;2022-12-07T07:46:25;13.40;;;7.10;;
45358;SDS011;31096;49.292;8.710;2022-12-07T07:51:15;17.23;;;7.70;;
45358;SDS011;31096;49.292;8.710;2022-12-07T07:56:06;14.50;;;8.05;;
45358;SDS011;31096;49.292;8.710;2022-12-07T08:01:02;13.10;;;7.10;;
45358;SDS011;31096;49.292;8.710;2022-12-07T08:05:55;15.90;;;8.65;;
45358;SDS011;31096;49.292;8.710;2022-12-07T08:10:45;14.10;;;7.83;;
45358;SDS011;31096;49.292;8.710;2022-12-07T08:15:37;14.60;;;7.63;;
45358;SDS011;31096;49.292;8.710;2022-12-07T08:20:32;14.95;;;7.85;;
45358;SDS011;31096;49.292;8.710;2022-12-07T08:25:24;16.00;;;8.45;;
45358;SDS011;31096;49.292;8.710;2022-12-07T08:30:16;12.90;;;6.45;;
45358;SDS011;31096;49.292;8.710;2022-12-07T08:35:07;17.33;;;7.55;;
45358;SDS011;31096;49.292;8.710;2022-12-07T08:39:59;14.70;;;7.43;;
45358;SDS011;31096;49.292;8.710;2022-12-07T08:44:50;14.60;;;7.85;;
45358;SDS011;31096;49.292;8.710;2022-12-07T08:49:41;17.83;;;8.70;;
45358;SDS011;31096;49.292;8.710;2022-12-07T08:54:36;15.30;;;7.70;;
45358;SDS011;31096;49.292;8.710;2022-12-07T08:59:29;15.60;;;8.10;;
45358;SDS011;31096;49.292;8.710;2022-12-07T09:04:20;14.40;;;7.45;;
45358;SDS011;31096;49.292;8.710;2022-12-07T09:09:11;14.77;;;7.47;;
45358;SDS011;31096;49.292;8.710;2022-12-07T09:14:02;15.75;;;8.20;;
45358;SDS011;31096;49.292;8.710;2022-12-07T09:18:53;16.13;;;8.13;;
45358;SDS011;31096;49.292;8.710;2022-12-07T09:23:44;16.30;;;7.72;;
45358;SDS011;31096;49.292;8.710;2022-12-07T09:28:34;14.37;;;7.10;;
45358;SDS011;31096;49.292;8.710;2022-12-07T09:33:26;13.38;;;6.85;;
45358;SDS011;31096;49.292;8.710;2022-12-07T09:38:17;12.60;;;7.30;;
45358;SDS011;31096;49.292;8.710;2022-12-07T09:43:17;13.45;;;6.78;;
45358;SDS011;31096;49.292;8.710;2022-12-07T09:48:30;11.63;;;6.43;;
45358;SDS011;31096;49.292;8.710;2022-12-07T09:53:27;12.73;;;6.23;;
45358;SDS011;31096;49.292;8.710;2022-12-07T09:58:23;15.20;;;7.90;;
45358;SDS011;31096;49.292;8.710;2022-12-07T10:03:17;12.17;;;6.27;;
45358;SDS011;31096;49.292;8.710;2022-12-07T10:08:09;12.48;;;6.88;;
45358;SDS011;31096;49.292;8.710;2022-12-07T10:13:03;15.90;;;6.72;;
45358;SDS011;31096;49.292;8.710;2022-12-07T10:17:57;12.93;;;6.87;;
45358;SDS011;31096;49.292;8.710;2022-12-07T10:22:53;11.80;;;6.72;;
45358;SDS011;31096;49.292;8.710;2022-12-07T10:28:33;15.23;;;6.53;;
45358;SDS011;31096;49.292;8.710;2022-12-07T10:38:19;13.82;;;6.68;;
45358;SDS011;31096;49.292;8.710;2022-12-07T10:48:08;13.65;;;7.18;;
45358;SDS011;31096;49.292;8.710;2022-12-07T11:03:42;15.00;;;7.07;;
45358;SDS011;31096;49.292;8.710;2022-12-07T11:09:16;16.50;;;8.10;;
45358;SDS011;31096;49.292;8.710;2022-12-07T11:14:25;12.93;;;6.82;;
45358;SDS011;31096;49.292;8.710;2022-12-07T11:40:34;12.32;;;6.05;;
45358;SDS011;31096;49.292;8.710;2022-12-07T11:45:27;11.87;;;6.33;;
45358;SDS011;31096;49.292;8.710;2022-12-07T11:51:21;11.55;;;6.15;;
45358;SDS011;31096;49.292;8.710;2022-12-07T11:55:52;14.40;;;7.72;;
45358;SDS011;31096;49.292;8.710;2022-12-07T12:01:01;12.75;;;6.85;;
45358;SDS011;31096;49.292;8.710;2022-12-07T12:06:10;11.88;;;6.25;;
45358;SDS011;31096;49.292;8.710;2022-12-07T12:11:05;11.67;;;6.40;;
45358;SDS011;31096;49.292;8.710;2022-12-07T12:21:42;13.87;;;6.70;;
45358;SDS011;31096;49.292;8.710;2022-12-07T12:26:34;13.75;;;7.28;;
45358;SDS011;31096;49.292;8.710;2022-12-07T12:47:02;14.03;;;6.57;;
45358;SDS011;31096;49.292;8.710;2022-12-07T12:57:31;13.40;;;6.70;;
45358;SDS011;31096;49.292;8.710;2022-12-07T13:12:42;15.77;;;6.83;;
45358;SDS011;31096;49.292;8.710;2022-12-07T13:22:46;13.57;;;6.87;;
45358;SDS011;31096;49.292;8.710;2022-12-07T13:27:41;14.75;;;6.75;;
45358;SDS011;31096;49.292;8.710;2022-12-07T13:32:34;13.95;;;7.07;;
45358;SDS011;31096;49.292;8.710;2022-12-07T13:37:26;15.73;;;7.47;;
45358;SDS011;31096;49.292;8.710;2022-12-07T13:52:30;16.27;;;7.15;;
45358;SDS011;31096;49.292;8.710;2022-12-07T13:57:24;15.30;;;7.18;;
45358;SDS011;31096;49.292;8.710;2022-12-07T14:02:27;14.03;;;7.03;;
45358;SDS011;31096;49.292;8.710;2022-12-07T14:12:17;14.23;;;7.97;;
45358;SDS011;31096;49.292;8.710;2022-12-07T14:17:17;13.38;;;7.10;;
45358;SDS011;31096;49.292;8.710;2022-12-07T14:22:20;11.18;;;6.13;;
45358;SDS011;31096;49.292;8.710;2022-12-07T14:27:20;13.77;;;6.80;;
45358;SDS011;31096;49.292;8.710;2022-12-07T14:32:26;14.73;;;6.15;;
45358;SDS011;31096;49.292;8.710;2022-12-07T14:37:19;12.43;;;6.17;;
45358;SDS011;31096;49.292;8.710;2022-12-07T14:42:09;12.93;;;6.35;;
45358;SDS011;31096;49.292;8.710;2022-12-07T14:47:00;13.30;;;7.07;;
45358;SDS011;31096;49.292;8.710;2022-12-07T14:51:52;12.25;;;6.50;;
45358;SDS011;31096;49.292;8.710;2022-12-07T14:56:44;13.90;;;6.47;;
45358;SDS011;31096;49.292;8.710;2022-12-07T15:01:38;13.90;;;7.55;;
45358;SDS011;31096;49.292;8.710;2022-12-07T15:06:29;14.70;;;7.53;;
45358;SDS011;31096;49.292;8.710;2022-12-07T15:11:20;15.55;;;7.05;;
45358;SDS011;31096;49.292;8.710;2022-12-07T15:16:13;12.85;;;5.93;;
45358;SDS011;31096;49.292;8.710;2022-12-07T15:21:12;12.55;;;6.88;;
45358;SDS011;31096;49.292;8.710;2022-12-07T15:26:06;14.80;;;6.40;;
45358;SDS011;31096;49.292;8.710;2022-12-07T15:30:57;10.57;;;5.65;;
45358;SDS011;31096;49.292;8.710;2022-12-07T15:35:49;12.25;;;5.90;;
45358;SDS011;31096;49.292;8.710;2022-12-07T15:40:40;13.70;;;6.60;;
45358;SDS011;31096;49.292;8.710;2022-12-07T15:45:31;13.37;;;6.60;;
45358;SDS011;31096;49.292;8.710;2022-12-07T15:50:22;11.48;;;6.68;;
45358;SDS011;31096;49.292;8.710;2022-12-07T15:55:13;17.43;;;7.00;;
45358;SDS011;31096;49.292;8.710;2022-12-07T16:00:05;14.20;;;6.43;;
45358;SDS011;31096;49.292;8.710;2022-12-07T16:04:58;11.95;;;6.50;;
45358;SDS011;31096;49.292;8.710;2022-12-07T16:09:49;13.10;;;6.40;;
45358;SDS011;31096;49.292;8.710;2022-12-07T16:14:42;13.05;;;6.43;;
45358;SDS011;31096;49.292;8.710;2022-12-07T16:19:33;11.95;;;5.85;;
45358;SDS011;31096;49.292;8.710;2022-12-07T16:24:24;12.38;;;6.25;;
45358;SDS011;31096;49.292;8.710;2022-12-07T16:29:17;14.23;;;6.77;;
45358;SDS011;31096;49.292;8.710;2022-12-07T16:34:09;17.23;;;7.18;;
45358;SDS011;31096;49.292;8.710;2022-12-07T16:39:01;11.80;;;5.95;;
45358;SDS011;31096;49.292;8.710;2022-12-07T16:43:52;15.27;;;7.40;;
45358;SDS011;31096;49.292;8.710;2022-12-07T16:48:44;14.13;;;7.20;;
45358;SDS011;31096;49.292;8.710;2022-12-07T16:53:35;14.73;;;6.80;;
45358;SDS011;31096;49.292;8.710;2022-12-07T16:58:27;13.50;;;6.90;;
45358;SDS011;31096;49.292;8.710;2022-12-07T17:03:17;14.23;;;7.27;;
45358;SDS011;31096;49.292;8.710;2022-12-07T17:08:09;14.43;;;7.45;;
45358;SDS011;31096;49.292;8.710;2022-12-07T17:13:00;15.43;;;7.87;;
45358;SDS011;31096;49.292;8.710;2022-12-07T17:18:12;11.52;;;6.22;;
45358;SDS011;31096;49.292;8.710;2022-12-07T17:23:03;14.17;;;6.90;;
45358;SDS011;31096;49.292;8.710;2022-12-07T17:27:53;17.23;;;7.83;;
45358;SDS011;31096;49.292;8.710;2022-12-07T17:32:44;14.15;;;7.30;;
45358;SDS011;31096;49.292;8.710;2022-12-07T17:37:35;13.70;;;7.33;;
45358;SDS011;31096;49.292;8.710;2022-12-07T17:42:26;14.80;;;8.00;;
45358;SDS011;31096;49.292;8.710;2022-12-07T17:47:26;15.00;;;6.93;;
45358;SDS011;31096;49.292;8.710;2022-12-07T17:52:16;17.50;;;7.53;;
45358;SDS011;31096;49.292;8.710;2022-12-07T17:57:25;13.87;;;6.37;;
45358;SDS011;31096;49.292;8.710;2022-12-07T18:02:17;14.77;;;8.02;;
45358;SDS011;31096;49.292;8.710;2022-12-07T18:07:09;13.00;;;6.77;;
45358;SDS011;31096;49.292;8.710;2022-12-07T18:12:00;12.48;;;6.63;;
45358;SDS011;31096;49.292;8.710;2022-12-07T18:16:51;12.35;;;6.32;;
45358;SDS011;31096;49.292;8.710;2022-12-07T18:21:42;14.33;;;6.90;;
45358;SDS011;31096;49.292;8.710;2022-12-07T18:26:34;13.65;;;6.82;;
45358;SDS011;31096;49.292;8.710;2022-12-07T18:31:26;17.60;;;8.20;;
45358;SDS011;31096;49.292;8.710;2022-12-07T18:36:18;14.90;;;7.70;;
45358;SDS011;31096;49.292;8.710;2022-12-07T18:41:10;13.43;;;7.13;;
45358;SDS011;31096;49.292;8.710;2022-12-07T18:46:08;17.63;;;7.13;;
45358;SDS011;31096;49.292;8.710;2022-12-07T18:51:03;13.00;;;6.30;;
45358;SDS011;31096;49.292;8.710;2022-12-07T18:56:05;15.07;;;7.47;;
45358;SDS011;31096;49.292;8.710;2022-12-07T19:01:00;13.23;;;6.60;;
45358;SDS011;31096;49.292;8.710;2022-12-07T19:05:51;14.90;;;7.75;;
45358;SDS011;31096;49.292;8.710;2022-12-07T19:10:45;12.77;;;6.63;;
45358;SDS011;31096;49.292;8.710;2022-12-07T19:15:38;15.20;;;7.65;;
45358;SDS011;31096;49.292;8.710;2022-12-07T19:20:30;16.88;;;7.80;;
45358;SDS011;31096;49.292;8.710;2022-12-07T19:25:21;18.60;;;8.02;;
45358;SDS011;31096;49.292;8.710;2022-12-07T19:30:12;16.48;;;7.82;;
45358;SDS011;31096;49.292;8.710;2022-12-07T19:35:05;14.83;;;7.83;;
45358;SDS011;31096;49.292;8.710;2022-12-07T19:39:57;19.90;;;8.48;;
45358;SDS011;31096;49.292;8.710;2022-12-07T19:44:47;17.33;;;9.50;;
45358;SDS011;31096;49.292;8.710;2022-12-07T19:49:38;17.48;;;9.00;;
45358;SDS011;31096;49.292;8.710;2022-12-07T19:54:29;15.60;;;7.70;;
45358;SDS011;31096;49.292;8.710;2022-12-07T19:59:22;17.77;;;8.57;;
45358;SDS011;31096;49.292;8.710;2022-12-07T20:04:23;16.37;;;7.63;;
45358;SDS011;31096;49.292;8.710;2022-12-07T20:09:16;18.48;;;8.60;;
45358;SDS011;31096;49.292;8.710;2022-12-07T20:14:09;16.20;;;7.97;;
45358;SDS011;31096;49.292;8.710;2022-12-07T20:19:01;17.65;;;8.80;;
45358;SDS011;31096;49.292;8.710;2022-12-07T20:23:52;18.98;;;9.32;;
45358;SDS011;31096;49.292;8.710;2022-12-07T20:28:43;19.73;;;8.73;;
45358;SDS011;31096;49.292;8.710;2022-12-07T20:33:35;20.45;;;9.85;;
45358;SDS011;31096;49.292;8.710;2022-12-07T20:38:27;18.97;;;10.03;;
45358;SDS011;31096;49.292;8.710;2022-12-07T20:43:21;21.08;;;10.02;;
45358;SDS011;31096;49.292;8.710;2022-12-07T20:48:13;20.37;;;9.97;;
45358;SDS011;31096;49.292;8.710;2022-12-07T20:53:05;18.25;;;8.82;;
45358;SDS011;31096;49.292;8.710;2022-12-07T20:57:55;21.23;;;10.03;;
45358;SDS011;31096;49.292;8.710;2022-12-07T21:02:47;21.70;;;9.57;;
45358;SDS011;31096;49.292;8.710;2022-12-07T21:07:39;19.02;;;9.18;;
45358;SDS011;31096;49.292;8.710;2022-12-07T21:12:30;21.43;;;10.27;;
45358;SDS011;31096;49.292;8.710;2022-12-07T21:17:21;18.55;;;9.27;;
45358;SDS011;31096;49.292;8.710;2022-12-07T21:22:11;18.13;;;9.63;;
45358;SDS011;31096;49.292;8.710;2022-12-07T21:27:02;21.15;;;10.07;;
45358;SDS011;31096;49.292;8.710;2022-12-07T21:31:53;21.43;;;9.80;;
45358;SDS011;31096;49.292;8.710;2022-12-07T21:36:44;20.87;;;10.23;;
45358;SDS011;31096;49.292;8.710;2022-12-07T21:41:34;20.00;;;9.23;;
45358;SDS011;31096;49.292;8.710;2022-12-07T21:46:26;20.83;;;9.67;;
45358;SDS011;31096;49.292;8.710;2022-12-07T21:51:19;22.08;;;9.95;;
45358;SDS011;31096;49.292;8.710;2022-12-07T21:56:19;20.87;;;9.13;;
45358;SDS011;31096;49.292;8.710;2022-12-07T22:01:23;23.60;;;10.10;;
45358;SDS011;31096;49.292;8.710;2022-12-07T22:06:18;20.02;;;9.40;;
45358;SDS011;31096;49.292;8.710;2022-12-07T22:11:12;22.47;;;9.80;;
45358;SDS011;31096;49.292;8.710;2022-12-07T22:16:03;21.75;;;9.00;;
45358;SDS011;31096;49.292;8.710;2022-12-07T22:20:58;18.00;;;8.93;;
45358;SDS011;31096;49.292;8.710;2022-12-07T22:25:49;20.85;;;9.68;;
45358;SDS011;31096;49.292;8.710;2022-12-07T22:30:41;18.08;;;7.93;;
45358;SDS011;31096;49.292;8.710;2022-12-07T22:35:32;19.60;;;8.60;;
45358;SDS011;31096;49.292;8.710;2022-12-07T22:40:23;20.57;;;9.37;;
45358;SDS011;31096;49.292;8.710;2022-12-07T22:45:14;19.58;;;8.75;;
45358;SDS011;31096;49.292;8.710;2022-12-07T22:50:05;20.23;;;9.47;;
45358;SDS011;31096;49.292;8.710;2022-12-07T22:54:56;20.20;;;9.18;;
45358;SDS011;31096;49.292;8.710;2022-12-07T22:59:47;19.33;;;9.37;;
45358;SDS011;31096;49.292;8.710;2022-12-07T23:04:38;20.20;;;8.85;;
45358;SDS011;31096;49.292;8.710;2022-12-07T23:09:29;18.33;;;8.13;;
45358;SDS011;31096;49.292;8.710;2022-12-07T23:14:21;18.90;;;8.45;;
45358;SDS011;31096;49.292;8.710;2022-12-07T23:19:23;19.05;;;8.15;;
45358;SDS011;31096;49.292;8.710;2022-12-07T23:24:16;22.02;;;8.68;;
45358;SDS011;31096;49.292;8.710;2022-12-07T23:29:07;20.73;;;8.57;;
45358;SDS011;31096;49.292;8.710;2022-12-07T23:34:01;15.00;;;7.70;;
45358;SDS011;31096;49.292;8.710;2022-12-07T23:38:52;18.20;;;9.00;;
45358;SDS011;31096;49.292;8.710;2022-12-07T23:43:45;16.15;;;8.30;;
45358;SDS011;31096;49.292;8.710;2022-12-07T23:48:36;16.17;;;8.33;;
45358;SDS011;31096;49.292;8.710;2022-12-07T23:53:28;19.60;;;8.80;;
45358;SDS011;31096;49.292;8.710;2022-12-07T23:58:23;20.30;;;9.50;;
